ENBRENCN

Guest
Details From ENBR - Bergen Lufthavn Flesland
To ENCN - Kristiansand lufthavn Kjevik
Flight Number -
Tags generated
Created
Modified
Stats Distance 156 nm / 289 km
Max Altitude 10,000 ft / 3,048 m
Waypoints 4
Social Downloads 0
Likes 0
Share VATSIM

Download

Looking for another format? Having issues loading an existing format? Contact us
Advertisement - Login to hide

Notes

Basic altitude profile: - Ascent Rate: 2500ft/min - Ascent Speed: 250kts - Cruise Altitude: 35000ft - Cruise Speed: 420kts - Descent Rate: 1500ft/min - Descent Speed: 250kts Options: - Use NATs: yes - Use PACOTS: yes - Use low airways: yes - Use high airways: yes

Route

ENBR FLS M725 SOXUS ENCN

ID Type Via Altitude Latitude Longitude Leg Dist Tot Dist Heading (true) Name
O ENBR APT - 0 ft / 0 m 60.29339˚ 5.21814˚ - 0 nm - Bergen Lufthavn Flesland
FLS VOR - 300 ft / 91 m 60.31126˚ 5.21219˚ 1 nm 1 nm 351° / 351° FLESLAND VOR-DME
SOXUS FIX M725 (AWY-LO) 10,000 ft / 3,048 m 58.87278˚ 7.50000˚ 110 nm 111 nm 140° / 142° -
O ENCN APT - 0 ft / 0 m 58.20419˚ 8.08534˚ 44 nm 156 nm 155° / 156° Kristiansand lufthavn Kjevik

Altitude Profile

Advertisement - Login to hide

ENBR

Details ICAO ENBR (BGO)
Name Bergen Lufthavn Flesland
Region Norway
Timezone Europe/Oslo (UTC+1.0)
Stats Elevation 165 ft / 50 m (AMSL)
Location 60.293388° 5.218140°
Runways 1
Magnetic Variation 0.842° E

METAR

ENBR 161620Z 04003KT 9999 FEW015CB M04/M06 Q1009 NOSIG RMK WIND 1200FT 02009KT

Decode

TAF

TAF ENBR 161100Z 1612/1712 01007KT 9999 FEW015 SCT050 TEMPO 1612/1618 FEW015CB BECMG 1706/1708 14010KT PROB30 TEMPO 1708/1712 2000 SHSN VV010

Decode

Departure Runways

ID Width Length Bearing (true) Bearing (mag) Surface Threshold Offset Overrun Length
17 148 ft / 45 m 9,793 ft / 2,985 m 170.56° 169.72° Asphalt 886 ft / 270 m 0 ft / 0 m
35 148 ft / 45 m 9,793 ft / 2,985 m 350.57° 349.73° Asphalt 886 ft / 270 m 0 ft / 0 m

ENCN

Details ICAO ENCN (KRS)
Name Kristiansand lufthavn Kjevik
Region Norway
Timezone Europe/Oslo (UTC+1.0)
Stats Elevation 57 ft / 17 m (AMSL)
Location 58.204191° 8.085337°
Runways 1
Magnetic Variation 2.113° E

METAR

ENCN 161620Z VRB03KT CAVOK M03/M07 Q1007

Decode

TAF

Not found

Destination Runways

ID Width Length Bearing (true) Bearing (mag) Surface Threshold Offset Overrun Length
04 148 ft / 45 m 6,667 ft / 2,032 m 34.94° 32.83° Asphalt 217 ft / 66 m 131 ft / 40 m
22 148 ft / 45 m 6,667 ft / 2,032 m 214.96° 212.85° Asphalt 325 ft / 99 m 312 ft / 95 m

Approach Navaids

Runway Type Ident Frequency Range Bearing (true) Bearing (mag) Slope Elevation
04 Localiser CN 110.30 MHz 18 nm / 33 km 34.96° 32.85° - 57 ft / 17 m (AMSL)
04 Glidescope CN 110.30 MHz 10 nm / 19 km 34.95° 32.84° 3.40° 57 ft / 17 m (AMSL)
22 Localiser KJ 110.90 MHz 18 nm / 33 km 214.94° 212.83° - 57 ft / 17 m (AMSL)
22 Glidescope KJ 110.90 MHz 10 nm / 19 km 214.95° 212.84° 3.60° 57 ft / 17 m (AMSL)

Popular Alternatives